sensor_id;sensor_type;location;lat;lon;timestamp;P1;durP1;ratioP1;P2;durP2;ratioP2
12120;SDS011;6124;59.460;17.908;2023-12-20T00:00:34;8.60;;;2.17;;
12120;SDS011;6124;59.460;17.908;2023-12-20T00:03:02;14.00;;;2.33;;
12120;SDS011;6124;59.460;17.908;2023-12-20T00:05:30;9.77;;;2.47;;
12120;SDS011;6124;59.460;17.908;2023-12-20T00:07:58;9.93;;;2.23;;
12120;SDS011;6124;59.460;17.908;2023-12-20T00:10:26;7.53;;;1.97;;
12120;SDS011;6124;59.460;17.908;2023-12-20T00:12:53;12.43;;;2.17;;
12120;SDS011;6124;59.460;17.908;2023-12-20T00:15:22;13.23;;;2.30;;
12120;SDS011;6124;59.460;17.908;2023-12-20T00:17:49;8.87;;;2.40;;
12120;SDS011;6124;59.460;17.908;2023-12-20T00:20:17;9.60;;;1.90;;
12120;SDS011;6124;59.460;17.908;2023-12-20T00:22:44;9.43;;;2.40;;
12120;SDS011;6124;59.460;17.908;2023-12-20T00:25:12;9.50;;;2.60;;
12120;SDS011;6124;59.460;17.908;2023-12-20T00:27:39;10.67;;;3.03;;
12120;SDS011;6124;59.460;17.908;2023-12-20T00:30:07;11.23;;;2.07;;
12120;SDS011;6124;59.460;17.908;2023-12-20T00:32:36;13.47;;;2.67;;
12120;SDS011;6124;59.460;17.908;2023-12-20T00:35:04;11.33;;;2.53;;
12120;SDS011;6124;59.460;17.908;2023-12-20T00:37:31;9.30;;;2.50;;
12120;SDS011;6124;59.460;17.908;2023-12-20T00:39:59;11.93;;;2.50;;
12120;SDS011;6124;59.460;17.908;2023-12-20T00:42:26;10.97;;;2.10;;
12120;SDS011;6124;59.460;17.908;2023-12-20T00:44:54;12.03;;;2.20;;
12120;SDS011;6124;59.460;17.908;2023-12-20T00:47:21;9.80;;;2.00;;
12120;SDS011;6124;59.460;17.908;2023-12-20T00:49:50;9.80;;;2.10;;
12120;SDS011;6124;59.460;17.908;2023-12-20T00:52:18;8.33;;;2.43;;
12120;SDS011;6124;59.460;17.908;2023-12-20T00:54:47;10.37;;;2.50;;
12120;SDS011;6124;59.460;17.908;2023-12-20T00:57:14;10.80;;;2.23;;
12120;SDS011;6124;59.460;17.908;2023-12-20T00:59:42;12.07;;;2.27;;
12120;SDS011;6124;59.460;17.908;2023-12-20T01:02:09;12.97;;;3.10;;
12120;SDS011;6124;59.460;17.908;2023-12-20T01:04:36;12.10;;;2.60;;
12120;SDS011;6124;59.460;17.908;2023-12-20T01:07:05;12.77;;;2.70;;
12120;SDS011;6124;59.460;17.908;2023-12-20T01:09:33;12.43;;;2.53;;
12120;SDS011;6124;59.460;17.908;2023-12-20T01:12:00;10.27;;;2.17;;
12120;SDS011;6124;59.460;17.908;2023-12-20T01:14:27;8.93;;;2.53;;
12120;SDS011;6124;59.460;17.908;2023-12-20T01:16:55;7.37;;;2.20;;
12120;SDS011;6124;59.460;17.908;2023-12-20T01:19:22;13.97;;;2.63;;
12120;SDS011;6124;59.460;17.908;2023-12-20T01:21:50;9.90;;;2.10;;
12120;SDS011;6124;59.460;17.908;2023-12-20T01:24:18;11.43;;;2.40;;
12120;SDS011;6124;59.460;17.908;2023-12-20T01:26:46;13.03;;;2.50;;
12120;SDS011;6124;59.460;17.908;2023-12-20T01:29:13;11.70;;;2.70;;
12120;SDS011;6124;59.460;17.908;2023-12-20T01:31:41;12.60;;;2.20;;
12120;SDS011;6124;59.460;17.908;2023-12-20T01:34:08;10.23;;;2.23;;
12120;SDS011;6124;59.460;17.908;2023-12-20T01:36:36;11.40;;;2.20;;
12120;SDS011;6124;59.460;17.908;2023-12-20T01:39:03;11.03;;;2.40;;
12120;SDS011;6124;59.460;17.908;2023-12-20T01:41:32;14.47;;;2.83;;
12120;SDS011;6124;59.460;17.908;2023-12-20T01:43:59;17.40;;;2.57;;
12120;SDS011;6124;59.460;17.908;2023-12-20T01:46:27;15.07;;;2.50;;
12120;SDS011;6124;59.460;17.908;2023-12-20T01:48:54;13.40;;;2.40;;
12120;SDS011;6124;59.460;17.908;2023-12-20T01:51:21;14.77;;;2.83;;
12120;SDS011;6124;59.460;17.908;2023-12-20T01:53:49;13.80;;;2.87;;
12120;SDS011;6124;59.460;17.908;2023-12-20T01:56:17;8.67;;;2.10;;
12120;SDS011;6124;59.460;17.908;2023-12-20T01:58:46;12.07;;;3.07;;
12120;SDS011;6124;59.460;17.908;2023-12-20T02:01:14;14.90;;;2.73;;
12120;SDS011;6124;59.460;17.908;2023-12-20T02:03:41;9.70;;;2.40;;
12120;SDS011;6124;59.460;17.908;2023-12-20T02:06:09;15.10;;;2.47;;
12120;SDS011;6124;59.460;17.908;2023-12-20T02:08:36;11.77;;;2.73;;
12120;SDS011;6124;59.460;17.908;2023-12-20T02:11:04;12.23;;;2.40;;
12120;SDS011;6124;59.460;17.908;2023-12-20T02:13:31;12.27;;;2.67;;
12120;SDS011;6124;59.460;17.908;2023-12-20T02:16:00;9.87;;;2.57;;
12120;SDS011;6124;59.460;17.908;2023-12-20T02:18:28;11.87;;;2.27;;
12120;SDS011;6124;59.460;17.908;2023-12-20T02:20:55;12.20;;;2.27;;
12120;SDS011;6124;59.460;17.908;2023-12-20T02:23:24;18.57;;;2.87;;
12120;SDS011;6124;59.460;17.908;2023-12-20T02:25:51;18.43;;;2.93;;
12120;SDS011;6124;59.460;17.908;2023-12-20T02:28:19;14.03;;;2.47;;
12120;SDS011;6124;59.460;17.908;2023-12-20T02:30:47;9.83;;;2.87;;
12120;SDS011;6124;59.460;17.908;2023-12-20T02:33:14;13.83;;;3.07;;
12120;SDS011;6124;59.460;17.908;2023-12-20T02:35:42;16.20;;;3.10;;
12120;SDS011;6124;59.460;17.908;2023-12-20T02:38:09;11.40;;;2.43;;
12120;SDS011;6124;59.460;17.908;2023-12-20T02:40:38;9.60;;;2.40;;
12120;SDS011;6124;59.460;17.908;2023-12-20T02:43:06;13.03;;;2.47;;
12120;SDS011;6124;59.460;17.908;2023-12-20T02:45:33;14.67;;;2.50;;
12120;SDS011;6124;59.460;17.908;2023-12-20T02:48:01;13.37;;;2.73;;
12120;SDS011;6124;59.460;17.908;2023-12-20T02:50:28;9.97;;;2.37;;
12120;SDS011;6124;59.460;17.908;2023-12-20T02:52:56;14.60;;;2.60;;
12120;SDS011;6124;59.460;17.908;2023-12-20T02:55:23;12.20;;;2.87;;
12120;SDS011;6124;59.460;17.908;2023-12-20T02:57:52;14.17;;;2.77;;
12120;SDS011;6124;59.460;17.908;2023-12-20T03:00:19;12.43;;;2.57;;
12120;SDS011;6124;59.460;17.908;2023-12-20T03:02:47;10.23;;;2.20;;
12120;SDS011;6124;59.460;17.908;2023-12-20T03:05:14;12.47;;;3.03;;
12120;SDS011;6124;59.460;17.908;2023-12-20T03:07:41;11.90;;;2.70;;
12120;SDS011;6124;59.460;17.908;2023-12-20T03:10:09;14.70;;;2.90;;
12120;SDS011;6124;59.460;17.908;2023-12-20T03:12:36;8.97;;;2.37;;
12120;SDS011;6124;59.460;17.908;2023-12-20T03:15:06;15.07;;;2.80;;
12120;SDS011;6124;59.460;17.908;2023-12-20T03:17:33;20.00;;;3.10;;
12120;SDS011;6124;59.460;17.908;2023-12-20T03:20:00;11.37;;;2.43;;
12120;SDS011;6124;59.460;17.908;2023-12-20T03:22:28;8.03;;;2.03;;
12120;SDS011;6124;59.460;17.908;2023-12-20T03:24:55;8.10;;;2.03;;
12120;SDS011;6124;59.460;17.908;2023-12-20T03:27:23;13.63;;;2.63;;
12120;SDS011;6124;59.460;17.908;2023-12-20T03:29:50;17.27;;;2.40;;
12120;SDS011;6124;59.460;17.908;2023-12-20T03:32:19;10.23;;;2.40;;
12120;SDS011;6124;59.460;17.908;2023-12-20T03:34:46;12.67;;;1.97;;
12120;SDS011;6124;59.460;17.908;2023-12-20T03:37:13;12.07;;;2.43;;
12120;SDS011;6124;59.460;17.908;2023-12-20T03:39:41;12.23;;;2.40;;
12120;SDS011;6124;59.460;17.908;2023-12-20T03:42:08;9.60;;;2.50;;
12120;SDS011;6124;59.460;17.908;2023-12-20T03:44:38;9.57;;;2.50;;
12120;SDS011;6124;59.460;17.908;2023-12-20T03:47:05;13.00;;;2.30;;
12120;SDS011;6124;59.460;17.908;2023-12-20T03:49:34;7.93;;;2.13;;
12120;SDS011;6124;59.460;17.908;2023-12-20T03:52:04;12.87;;;2.53;;
12120;SDS011;6124;59.460;17.908;2023-12-20T03:54:31;7.33;;;2.10;;
12120;SDS011;6124;59.460;17.908;2023-12-20T03:56:58;11.40;;;2.30;;
12120;SDS011;6124;59.460;17.908;2023-12-20T03:59:26;9.37;;;2.67;;
12120;SDS011;6124;59.460;17.908;2023-12-20T04:01:53;12.50;;;2.83;;
12120;SDS011;6124;59.460;17.908;2023-12-20T04:04:21;9.97;;;2.67;;
12120;SDS011;6124;59.460;17.908;2023-12-20T04:06:49;17.53;;;2.60;;
12120;SDS011;6124;59.460;17.908;2023-12-20T04:09:17;16.67;;;2.77;;
12120;SDS011;6124;59.460;17.908;2023-12-20T04:11:44;9.93;;;2.20;;
12120;SDS011;6124;59.460;17.908;2023-12-20T04:14:11;12.67;;;2.50;;
12120;SDS011;6124;59.460;17.908;2023-12-20T04:16:39;11.10;;;2.60;;
12120;SDS011;6124;59.460;17.908;2023-12-20T04:19:07;14.70;;;2.70;;
12120;SDS011;6124;59.460;17.908;2023-12-20T04:21:35;8.97;;;2.83;;
12120;SDS011;6124;59.460;17.908;2023-12-20T04:24:04;13.90;;;2.93;;
12120;SDS011;6124;59.460;17.908;2023-12-20T04:26:31;9.00;;;2.40;;
12120;SDS011;6124;59.460;17.908;2023-12-20T04:28:59;10.23;;;2.50;;
12120;SDS011;6124;59.460;17.908;2023-12-20T04:31:26;10.07;;;2.33;;
12120;SDS011;6124;59.460;17.908;2023-12-20T04:33:53;11.53;;;2.73;;
12120;SDS011;6124;59.460;17.908;2023-12-20T04:36:21;8.70;;;2.50;;
12120;SDS011;6124;59.460;17.908;2023-12-20T04:38:50;13.17;;;2.30;;
12120;SDS011;6124;59.460;17.908;2023-12-20T04:41:19;11.13;;;2.37;;
12120;SDS011;6124;59.460;17.908;2023-12-20T04:43:46;14.50;;;2.57;;
12120;SDS011;6124;59.460;17.908;2023-12-20T04:46:13;15.20;;;2.67;;
12120;SDS011;6124;59.460;17.908;2023-12-20T04:48:41;9.83;;;2.50;;
12120;SDS011;6124;59.460;17.908;2023-12-20T04:51:08;13.03;;;2.43;;
12120;SDS011;6124;59.460;17.908;2023-12-20T04:53:37;11.27;;;2.43;;
12120;SDS011;6124;59.460;17.908;2023-12-20T04:56:04;9.40;;;2.67;;
12120;SDS011;6124;59.460;17.908;2023-12-20T04:58:33;8.73;;;2.20;;
12120;SDS011;6124;59.460;17.908;2023-12-20T05:01:00;9.57;;;2.70;;
12120;SDS011;6124;59.460;17.908;2023-12-20T05:03:28;13.73;;;2.97;;
12120;SDS011;6124;59.460;17.908;2023-12-20T05:05:55;8.30;;;2.30;;
12120;SDS011;6124;59.460;17.908;2023-12-20T05:08:23;14.93;;;3.10;;
12120;SDS011;6124;59.460;17.908;2023-12-20T05:10:51;11.57;;;2.27;;
12120;SDS011;6124;59.460;17.908;2023-12-20T05:13:19;9.60;;;3.00;;
12120;SDS011;6124;59.460;17.908;2023-12-20T05:15:47;14.60;;;3.50;;
12120;SDS011;6124;59.460;17.908;2023-12-20T05:18:15;9.40;;;2.40;;
12120;SDS011;6124;59.460;17.908;2023-12-20T05:20:42;10.03;;;2.57;;
12120;SDS011;6124;59.460;17.908;2023-12-20T05:23:11;12.07;;;2.57;;
12120;SDS011;6124;59.460;17.908;2023-12-20T05:25:38;13.07;;;2.93;;
12120;SDS011;6124;59.460;17.908;2023-12-20T05:28:05;8.80;;;2.60;;
12120;SDS011;6124;59.460;17.908;2023-12-20T05:30:33;10.20;;;2.47;;
12120;SDS011;6124;59.460;17.908;2023-12-20T05:33:02;10.17;;;2.53;;
12120;SDS011;6124;59.460;17.908;2023-12-20T05:35:29;8.53;;;2.63;;
12120;SDS011;6124;59.460;17.908;2023-12-20T05:37:56;8.93;;;3.00;;
12120;SDS011;6124;59.460;17.908;2023-12-20T05:40:24;8.63;;;2.43;;
12120;SDS011;6124;59.460;17.908;2023-12-20T05:42:51;12.50;;;2.87;;
12120;SDS011;6124;59.460;17.908;2023-12-20T05:45:19;7.93;;;2.30;;
12120;SDS011;6124;59.460;17.908;2023-12-20T05:47:46;12.07;;;2.53;;
12120;SDS011;6124;59.460;17.908;2023-12-20T05:50:15;9.90;;;2.43;;
12120;SDS011;6124;59.460;17.908;2023-12-20T05:52:42;5.87;;;2.63;;
12120;SDS011;6124;59.460;17.908;2023-12-20T05:55:10;6.63;;;2.37;;
12120;SDS011;6124;59.460;17.908;2023-12-20T05:57:37;10.27;;;2.40;;
12120;SDS011;6124;59.460;17.908;2023-12-20T06:00:05;9.37;;;2.80;;
12120;SDS011;6124;59.460;17.908;2023-12-20T06:02:33;6.53;;;2.77;;
12120;SDS011;6124;59.460;17.908;2023-12-20T06:05:01;9.77;;;3.00;;
12120;SDS011;6124;59.460;17.908;2023-12-20T06:07:30;12.87;;;3.03;;
12120;SDS011;6124;59.460;17.908;2023-12-20T06:09:58;8.73;;;2.20;;
12120;SDS011;6124;59.460;17.908;2023-12-20T06:12:25;8.13;;;2.53;;
12120;SDS011;6124;59.460;17.908;2023-12-20T06:14:53;7.63;;;2.37;;
12120;SDS011;6124;59.460;17.908;2023-12-20T06:17:22;8.47;;;2.93;;
12120;SDS011;6124;59.460;17.908;2023-12-20T06:19:49;12.40;;;2.73;;
12120;SDS011;6124;59.460;17.908;2023-12-20T06:22:17;11.37;;;2.80;;
12120;SDS011;6124;59.460;17.908;2023-12-20T06:24:46;7.17;;;2.47;;
12120;SDS011;6124;59.460;17.908;2023-12-20T06:27:13;7.17;;;2.33;;
12120;SDS011;6124;59.460;17.908;2023-12-20T06:29:40;9.27;;;2.80;;
12120;SDS011;6124;59.460;17.908;2023-12-20T06:32:10;9.93;;;3.23;;
12120;SDS011;6124;59.460;17.908;2023-12-20T06:34:37;15.47;;;3.10;;
12120;SDS011;6124;59.460;17.908;2023-12-20T06:37:04;9.93;;;2.70;;
12120;SDS011;6124;59.460;17.908;2023-12-20T06:39:32;11.87;;;2.97;;
12120;SDS011;6124;59.460;17.908;2023-12-20T06:42:01;6.03;;;2.60;;
12120;SDS011;6124;59.460;17.908;2023-12-20T06:44:29;7.87;;;2.70;;
12120;SDS011;6124;59.460;17.908;2023-12-20T06:46:56;7.20;;;2.70;;
12120;SDS011;6124;59.460;17.908;2023-12-20T06:49:24;8.93;;;2.50;;
12120;SDS011;6124;59.460;17.908;2023-12-20T06:51:51;8.10;;;2.87;;
12120;SDS011;6124;59.460;17.908;2023-12-20T06:54:19;6.40;;;2.70;;
12120;SDS011;6124;59.460;17.908;2023-12-20T06:56:46;11.93;;;3.20;;
12120;SDS011;6124;59.460;17.908;2023-12-20T06:59:15;5.97;;;2.70;;
12120;SDS011;6124;59.460;17.908;2023-12-20T07:01:47;5.23;;;2.70;;
12120;SDS011;6124;59.460;17.908;2023-12-20T07:04:15;7.90;;;3.13;;
12120;SDS011;6124;59.460;17.908;2023-12-20T07:06:45;12.20;;;3.60;;
12120;SDS011;6124;59.460;17.908;2023-12-20T07:09:13;18.53;;;4.27;;
12120;SDS011;6124;59.460;17.908;2023-12-20T07:11:40;14.20;;;4.50;;
12120;SDS011;6124;59.460;17.908;2023-12-20T07:14:08;12.10;;;3.73;;
12120;SDS011;6124;59.460;17.908;2023-12-20T07:16:37;32.40;;;5.53;;
12120;SDS011;6124;59.460;17.908;2023-12-20T07:19:04;8.00;;;3.33;;
12120;SDS011;6124;59.460;17.908;2023-12-20T07:21:31;21.97;;;4.47;;
12120;SDS011;6124;59.460;17.908;2023-12-20T07:23:59;11.93;;;4.17;;
12120;SDS011;6124;59.460;17.908;2023-12-20T07:26:26;17.40;;;4.63;;
12120;SDS011;6124;59.460;17.908;2023-12-20T07:28:54;14.80;;;4.63;;
12120;SDS011;6124;59.460;17.908;2023-12-20T07:31:21;8.93;;;4.20;;
12120;SDS011;6124;59.460;17.908;2023-12-20T07:33:50;9.50;;;4.10;;
12120;SDS011;6124;59.460;17.908;2023-12-20T07:36:19;16.87;;;5.77;;
12120;SDS011;6124;59.460;17.908;2023-12-20T07:38:47;15.43;;;5.00;;
12120;SDS011;6124;59.460;17.908;2023-12-20T07:41:15;13.70;;;4.83;;
12120;SDS011;6124;59.460;17.908;2023-12-20T07:43:42;12.93;;;5.67;;
12120;SDS011;6124;59.460;17.908;2023-12-20T07:46:10;26.73;;;6.77;;
12120;SDS011;6124;59.460;17.908;2023-12-20T07:48:37;23.07;;;7.30;;
12120;SDS011;6124;59.460;17.908;2023-12-20T07:51:07;23.80;;;7.10;;
12120;SDS011;6124;59.460;17.908;2023-12-20T07:53:35;22.80;;;7.03;;
12120;SDS011;6124;59.460;17.908;2023-12-20T07:56:03;22.97;;;6.93;;
12120;SDS011;6124;59.460;17.908;2023-12-20T07:58:40;15.30;;;6.57;;
12120;SDS011;6124;59.460;17.908;2023-12-20T08:01:08;20.13;;;6.73;;
12120;SDS011;6124;59.460;17.908;2023-12-20T08:03:35;21.83;;;7.33;;
12120;SDS011;6124;59.460;17.908;2023-12-20T08:06:02;39.90;;;8.90;;
12120;SDS011;6124;59.460;17.908;2023-12-20T08:08:31;22.17;;;7.67;;
12120;SDS011;6124;59.460;17.908;2023-12-20T08:10:59;19.83;;;7.37;;
12120;SDS011;6124;59.460;17.908;2023-12-20T08:13:27;28.87;;;9.33;;
12120;SDS011;6124;59.460;17.908;2023-12-20T08:15:55;23.83;;;8.43;;
12120;SDS011;6124;59.460;17.908;2023-12-20T08:18:22;28.33;;;8.57;;
12120;SDS011;6124;59.460;17.908;2023-12-20T08:20:50;31.63;;;9.00;;
12120;SDS011;6124;59.460;17.908;2023-12-20T08:23:19;27.77;;;8.40;;
12120;SDS011;6124;59.460;17.908;2023-12-20T08:25:48;23.33;;;8.53;;
12120;SDS011;6124;59.460;17.908;2023-12-20T08:28:15;30.40;;;9.30;;
12120;SDS011;6124;59.460;17.908;2023-12-20T08:30:43;21.53;;;8.17;;
12120;SDS011;6124;59.460;17.908;2023-12-20T08:33:10;30.83;;;9.13;;
12120;SDS011;6124;59.460;17.908;2023-12-20T08:35:38;28.27;;;9.43;;
12120;SDS011;6124;59.460;17.908;2023-12-20T08:38:06;27.67;;;9.30;;
12120;SDS011;6124;59.460;17.908;2023-12-20T08:40:33;35.50;;;10.20;;
12120;SDS011;6124;59.460;17.908;2023-12-20T08:43:02;30.43;;;10.10;;
12120;SDS011;6124;59.460;17.908;2023-12-20T08:45:29;31.43;;;10.13;;
12120;SDS011;6124;59.460;17.908;2023-12-20T08:47:57;26.53;;;8.73;;
12120;SDS011;6124;59.460;17.908;2023-12-20T08:50:25;31.67;;;10.03;;
12120;SDS011;6124;59.460;17.908;2023-12-20T08:52:52;34.40;;;10.40;;
12120;SDS011;6124;59.460;17.908;2023-12-20T08:55:19;27.63;;;9.33;;
12120;SDS011;6124;59.460;17.908;2023-12-20T08:57:47;25.93;;;9.87;;
12120;SDS011;6124;59.460;17.908;2023-12-20T09:00:17;30.67;;;9.93;;
12120;SDS011;6124;59.460;17.908;2023-12-20T09:02:46;30.93;;;10.20;;
12120;SDS011;6124;59.460;17.908;2023-12-20T09:05:13;29.10;;;9.13;;
12120;SDS011;6124;59.460;17.908;2023-12-20T09:07:40;30.30;;;9.93;;
12120;SDS011;6124;59.460;17.908;2023-12-20T09:10:08;25.37;;;9.30;;
12120;SDS011;6124;59.460;17.908;2023-12-20T09:12:36;29.70;;;9.73;;
12120;SDS011;6124;59.460;17.908;2023-12-20T09:15:06;30.80;;;10.40;;
12120;SDS011;6124;59.460;17.908;2023-12-20T09:17:35;29.57;;;9.60;;
12120;SDS011;6124;59.460;17.908;2023-12-20T09:20:02;26.53;;;9.50;;
12120;SDS011;6124;59.460;17.908;2023-12-20T09:22:32;26.53;;;9.30;;
12120;SDS011;6124;59.460;17.908;2023-12-20T09:24:59;26.03;;;9.70;;
12120;SDS011;6124;59.460;17.908;2023-12-20T09:27:28;26.63;;;10.10;;
12120;SDS011;6124;59.460;17.908;2023-12-20T09:29:55;30.00;;;9.80;;
12120;SDS011;6124;59.460;17.908;2023-12-20T09:32:23;35.00;;;9.87;;
12120;SDS011;6124;59.460;17.908;2023-12-20T09:34:52;28.03;;;9.67;;
12120;SDS011;6124;59.460;17.908;2023-12-20T09:37:19;25.97;;;9.83;;
12120;SDS011;6124;59.460;17.908;2023-12-20T09:39:47;26.63;;;9.90;;
12120;SDS011;6124;59.460;17.908;2023-12-20T09:42:15;33.57;;;9.60;;
12120;SDS011;6124;59.460;17.908;2023-12-20T09:44:44;25.20;;;9.40;;
12120;SDS011;6124;59.460;17.908;2023-12-20T09:47:11;22.37;;;9.53;;
12120;SDS011;6124;59.460;17.908;2023-12-20T09:49:39;24.50;;;9.83;;
12120;SDS011;6124;59.460;17.908;2023-12-20T09:52:09;23.20;;;9.43;;
12120;SDS011;6124;59.460;17.908;2023-12-20T09:54:36;26.70;;;10.30;;
12120;SDS011;6124;59.460;17.908;2023-12-20T09:57:04;28.47;;;10.20;;
12120;SDS011;6124;59.460;17.908;2023-12-20T09:59:31;31.60;;;10.50;;
12120;SDS011;6124;59.460;17.908;2023-12-20T10:01:59;25.50;;;9.57;;
12120;SDS011;6124;59.460;17.908;2023-12-20T10:04:29;29.00;;;10.50;;
12120;SDS011;6124;59.460;17.908;2023-12-20T10:07:01;30.47;;;10.30;;
12120;SDS011;6124;59.460;17.908;2023-12-20T10:09:32;27.87;;;10.60;;
12120;SDS011;6124;59.460;17.908;2023-12-20T10:11:59;29.87;;;11.20;;
12120;SDS011;6124;59.460;17.908;2023-12-20T10:14:27;29.37;;;10.20;;
12120;SDS011;6124;59.460;17.908;2023-12-20T10:16:56;24.80;;;10.20;;
12120;SDS011;6124;59.460;17.908;2023-12-20T10:19:29;24.97;;;10.03;;
12120;SDS011;6124;59.460;17.908;2023-12-20T10:21:57;22.50;;;9.73;;
12120;SDS011;6124;59.460;17.908;2023-12-20T10:24:25;25.97;;;10.00;;
12120;SDS011;6124;59.460;17.908;2023-12-20T10:27:02;29.30;;;11.23;;
12120;SDS011;6124;59.460;17.908;2023-12-20T10:29:33;28.57;;;11.17;;
12120;SDS011;6124;59.460;17.908;2023-12-20T10:32:05;31.67;;;11.43;;
12120;SDS011;6124;59.460;17.908;2023-12-20T10:34:48;24.07;;;9.07;;
12120;SDS011;6124;59.460;17.908;2023-12-20T10:37:15;27.77;;;10.33;;
12120;SDS011;6124;59.460;17.908;2023-12-20T10:39:43;28.50;;;10.17;;
12120;SDS011;6124;59.460;17.908;2023-12-20T10:42:12;24.63;;;9.47;;
12120;SDS011;6124;59.460;17.908;2023-12-20T10:44:40;26.33;;;10.13;;
12120;SDS011;6124;59.460;17.908;2023-12-20T10:47:08;32.03;;;11.10;;
12120;SDS011;6124;59.460;17.908;2023-12-20T10:49:36;26.97;;;10.27;;
12120;SDS011;6124;59.460;17.908;2023-12-20T10:52:05;26.47;;;9.10;;
12120;SDS011;6124;59.460;17.908;2023-12-20T10:54:33;28.17;;;9.50;;
12120;SDS011;6124;59.460;17.908;2023-12-20T10:57:00;33.20;;;10.07;;
12120;SDS011;6124;59.460;17.908;2023-12-20T10:59:36;26.77;;;9.77;;
12120;SDS011;6124;59.460;17.908;2023-12-20T11:02:03;31.13;;;10.87;;
12120;SDS011;6124;59.460;17.908;2023-12-20T11:04:35;27.73;;;9.23;;
12120;SDS011;6124;59.460;17.908;2023-12-20T11:07:06;36.43;;;10.17;;
12120;SDS011;6124;59.460;17.908;2023-12-20T11:09:36;23.03;;;9.27;;
12120;SDS011;6124;59.460;17.908;2023-12-20T11:12:09;33.40;;;9.30;;
12120;SDS011;6124;59.460;17.908;2023-12-20T11:14:41;25.40;;;9.90;;
12120;SDS011;6124;59.460;17.908;2023-12-20T11:17:10;32.90;;;10.70;;
12120;SDS011;6124;59.460;17.908;2023-12-20T11:19:43;34.83;;;10.13;;
12120;SDS011;6124;59.460;17.908;2023-12-20T11:22:31;30.70;;;10.07;;
12120;SDS011;6124;59.460;17.908;2023-12-20T11:24:59;26.57;;;9.47;;
12120;SDS011;6124;59.460;17.908;2023-12-20T11:27:30;30.27;;;9.40;;
12120;SDS011;6124;59.460;17.908;2023-12-20T11:29:59;35.83;;;10.53;;
12120;SDS011;6124;59.460;17.908;2023-12-20T11:32:29;28.90;;;8.97;;
12120;SDS011;6124;59.460;17.908;2023-12-20T11:34:57;28.60;;;9.13;;
12120;SDS011;6124;59.460;17.908;2023-12-20T11:37:28;27.20;;;9.40;;
12120;SDS011;6124;59.460;17.908;2023-12-20T11:40:00;27.97;;;8.57;;
12120;SDS011;6124;59.460;17.908;2023-12-20T11:42:27;21.97;;;8.13;;
12120;SDS011;6124;59.460;17.908;2023-12-20T11:44:55;23.27;;;8.63;;
12120;SDS011;6124;59.460;17.908;2023-12-20T11:47:24;24.03;;;7.93;;
12120;SDS011;6124;59.460;17.908;2023-12-20T11:49:52;24.67;;;7.90;;
12120;SDS011;6124;59.460;17.908;2023-12-20T11:52:21;21.77;;;7.90;;
12120;SDS011;6124;59.460;17.908;2023-12-20T11:54:48;20.43;;;7.93;;
12120;SDS011;6124;59.460;17.908;2023-12-20T11:57:16;18.53;;;7.57;;
12120;SDS011;6124;59.460;17.908;2023-12-20T11:59:43;24.43;;;7.67;;
12120;SDS011;6124;59.460;17.908;2023-12-20T12:02:11;21.20;;;7.33;;
12120;SDS011;6124;59.460;17.908;2023-12-20T12:04:42;17.17;;;6.87;;
12120;SDS011;6124;59.460;17.908;2023-12-20T12:07:09;21.13;;;7.27;;
12120;SDS011;6124;59.460;17.908;2023-12-20T12:09:37;15.87;;;6.73;;
12120;SDS011;6124;59.460;17.908;2023-12-20T12:12:05;15.93;;;6.30;;
12120;SDS011;6124;59.460;17.908;2023-12-20T12:14:33;21.67;;;6.70;;
12120;SDS011;6124;59.460;17.908;2023-12-20T12:17:02;21.67;;;6.63;;
12120;SDS011;6124;59.460;17.908;2023-12-20T12:19:30;16.80;;;6.33;;
12120;SDS011;6124;59.460;17.908;2023-12-20T12:22:08;20.20;;;6.80;;
12120;SDS011;6124;59.460;17.908;2023-12-20T12:24:38;17.17;;;6.97;;
12120;SDS011;6124;59.460;17.908;2023-12-20T12:27:06;16.63;;;6.67;;
12120;SDS011;6124;59.460;17.908;2023-12-20T12:29:33;18.77;;;6.17;;
12120;SDS011;6124;59.460;17.908;2023-12-20T12:32:01;11.60;;;6.30;;
12120;SDS011;6124;59.460;17.908;2023-12-20T12:34:32;13.63;;;5.63;;
12120;SDS011;6124;59.460;17.908;2023-12-20T12:36:59;11.00;;;6.03;;
12120;SDS011;6124;59.460;17.908;2023-12-20T12:39:28;16.80;;;6.33;;
12120;SDS011;6124;59.460;17.908;2023-12-20T12:41:56;12.63;;;5.47;;
12120;SDS011;6124;59.460;17.908;2023-12-20T12:44:24;11.97;;;5.63;;
12120;SDS011;6124;59.460;17.908;2023-12-20T12:46:51;13.83;;;5.93;;
12120;SDS011;6124;59.460;17.908;2023-12-20T12:49:19;10.87;;;5.63;;
12120;SDS011;6124;59.460;17.908;2023-12-20T12:51:47;13.87;;;6.60;;
12120;SDS011;6124;59.460;17.908;2023-12-20T12:54:14;10.43;;;5.27;;
12120;SDS011;6124;59.460;17.908;2023-12-20T12:56:44;12.27;;;6.70;;
12120;SDS011;6124;59.460;17.908;2023-12-20T12:59:13;16.63;;;6.70;;
12120;SDS011;6124;59.460;17.908;2023-12-20T13:01:40;15.17;;;5.70;;
12120;SDS011;6124;59.460;17.908;2023-12-20T13:04:08;9.77;;;5.60;;
12120;SDS011;6124;59.460;17.908;2023-12-20T13:06:36;11.00;;;5.63;;
12120;SDS011;6124;59.460;17.908;2023-12-20T13:09:04;11.57;;;5.63;;
12120;SDS011;6124;59.460;17.908;2023-12-20T13:11:31;15.33;;;6.23;;
12120;SDS011;6124;59.460;17.908;2023-12-20T13:14:00;15.07;;;5.43;;
12120;SDS011;6124;59.460;17.908;2023-12-20T13:16:29;13.83;;;5.50;;
12120;SDS011;6124;59.460;17.908;2023-12-20T13:18:55;13.63;;;5.63;;
12120;SDS011;6124;59.460;17.908;2023-12-20T13:21:25;13.27;;;5.93;;
12120;SDS011;6124;59.460;17.908;2023-12-20T13:23:52;11.70;;;5.47;;
12120;SDS011;6124;59.460;17.908;2023-12-20T13:26:20;8.87;;;4.63;;
12120;SDS011;6124;59.460;17.908;2023-12-20T13:28:47;12.67;;;5.50;;
12120;SDS011;6124;59.460;17.908;2023-12-20T13:31:16;12.80;;;5.83;;
12120;SDS011;6124;59.460;17.908;2023-12-20T13:33:43;15.47;;;5.83;;
12120;SDS011;6124;59.460;17.908;2023-12-20T13:36:11;9.83;;;5.97;;
12120;SDS011;6124;59.460;17.908;2023-12-20T13:38:38;13.63;;;7.17;;
12120;SDS011;6124;59.460;17.908;2023-12-20T13:41:06;14.50;;;6.93;;
12120;SDS011;6124;59.460;17.908;2023-12-20T13:43:33;12.87;;;6.53;;
12120;SDS011;6124;59.460;17.908;2023-12-20T13:46:01;13.10;;;6.43;;
12120;SDS011;6124;59.460;17.908;2023-12-20T13:48:30;19.53;;;6.57;;
12120;SDS011;6124;59.460;17.908;2023-12-20T13:50:58;13.47;;;4.97;;
12120;SDS011;6124;59.460;17.908;2023-12-20T13:53:25;13.60;;;5.03;;
12120;SDS011;6124;59.460;17.908;2023-12-20T13:55:53;18.53;;;6.30;;
12120;SDS011;6124;59.460;17.908;2023-12-20T13:58:21;12.37;;;4.97;;
12120;SDS011;6124;59.460;17.908;2023-12-20T14:00:48;10.10;;;4.70;;
12120;SDS011;6124;59.460;17.908;2023-12-20T14:03:15;13.93;;;5.90;;
12120;SDS011;6124;59.460;17.908;2023-12-20T14:05:46;15.30;;;6.33;;
12120;SDS011;6124;59.460;17.908;2023-12-20T14:08:13;10.97;;;5.20;;
12120;SDS011;6124;59.460;17.908;2023-12-20T14:10:41;16.00;;;6.23;;
12120;SDS011;6124;59.460;17.908;2023-12-20T14:13:08;13.73;;;5.63;;
12120;SDS011;6124;59.460;17.908;2023-12-20T14:15:36;11.37;;;5.17;;
12120;SDS011;6124;59.460;17.908;2023-12-20T14:18:04;9.67;;;5.00;;
12120;SDS011;6124;59.460;17.908;2023-12-20T14:20:33;13.57;;;5.80;;
12120;SDS011;6124;59.460;17.908;2023-12-20T14:23:02;14.00;;;4.80;;
12120;SDS011;6124;59.460;17.908;2023-12-20T14:25:29;10.33;;;4.90;;
12120;SDS011;6124;59.460;17.908;2023-12-20T14:27:57;9.10;;;4.23;;
12120;SDS011;6124;59.460;17.908;2023-12-20T14:30:24;8.57;;;4.30;;
12120;SDS011;6124;59.460;17.908;2023-12-20T14:32:53;9.83;;;4.30;;
12120;SDS011;6124;59.460;17.908;2023-12-20T14:35:21;7.97;;;4.23;;
12120;SDS011;6124;59.460;17.908;2023-12-20T14:37:48;9.33;;;4.40;;
12120;SDS011;6124;59.460;17.908;2023-12-20T14:40:17;11.67;;;4.13;;